Glorieta, NM (87535)

6:44 AM MDT on June 24, 2018 (GMT -0600)
Lower Canoncito | | Change Station
Active Advisory: Fire Weather Warning

Elev 6870 ft 35.52 °N, 105.84 °W | Updated 14 minutes ago

Clear
Clear
54.1 °F
Feels Like 54.1 °F
N
0
Wind Variable Wind from ESE
Gusts 5.0 mph

Today
High -- | Low -- °F
--% Chance of Precip.
Yesterday
High -- | Low -- °F
Precip. -- in
Pressure 29.67 in
Visibility 10.0 miles
Clouds Clear
Dew Point 25 °F
Humidity 32%
Rainfall 0.00 in
Snow Depth Not available.
5:48 AM 8:22 PM
Waxing Gibbous, 88% visible
METAR KSAF 241153Z AUTO 28004KT 10SM CLR 14/M06 A3001 RMK AO2 SLP047 T01391061 10200 20122 51006
Pressure 29.67 in
Visibility 10.0 miles
Clouds Clear
Dew Point 25 °F
Humidity 32%
Rainfall 0.00 in
Snow Depth Not available.
5:48 AM 8:22 PM
Waxing Gibbous, 88% visible
METAR KSAF 241153Z AUTO 28004KT 10SM CLR 14/M06 A3001 RMK AO2 SLP047 T01391061 10200 20122 51006

Get Your Daily Forecast Email!

Thanks for signing up!

Be on the lookout for a verification email in your inbox.

You'll start receiving severe weather alerts in your inbox..

×

10-Day Weather Forecast

Almanac

Astronomy

Jun. 24, 2018 Rise Set
Actual Time
Civil Twilight
Nautical Twilight
Astronomical Twilight
Moon
Length of Visible Light
Length of Day
Tomorrow will be .
, % of the Moon is Illuminated

Today's Extremes

State Highs State Lows

Community

WunderPhotos

Category 6

Welcome to Category 6. This is the collective home for Weather Underground's featured writeups by Dr. Jeff Masters (right), Bob Henson (left), Chris Burt, and other regular contributors.

Nearby

Air Quality

  Air Quality AQ Index Pollutant
Not available.

Snow Depth

Station Depth Elevation

Earthquake Activity

City Distance Mag. Time & Date
Minimum magnitude displayed is 2.5.

Coastal Water Temperatures

Place Temperature

Stations

Nearby Weather Stations

Station Location Temp. Windchill Dew Point Humidity Wind Precip. Elev Updated Type
                   

Watches & Warnings

Fire Weather Warning
Issued: 1:51 AM MDT Jun. 24, 2018 – National Weather Service

... Red flag warning remains in effect from 2 PM this afternoon to
7 PM MDT this evening...

* area and timing... this includes the northwest plateau and the
north central mountains this afternoon and early evening.

* 20 foot winds... west at 15 to 25 mph with gusts to 35 mph.

* Relative humidity... minimum humidity values between 7 and 15
percent.

* Impacts... any fires that develop will likely spread rapidly.
Outdoor burning is not recommended.

Precautionary/preparedness actions...

Please advise the appropriate officials or fire crews in the
field of this red flag warning.



34